createdAt,value
2022-12-17T00:01:14.837Z,17.75
2022-12-17T00:03:32.093Z,18.63
2022-12-17T00:05:51.977Z,19.15
2022-12-17T00:08:12.249Z,18.77
2022-12-17T00:10:29.444Z,18.13
2022-12-17T00:12:46.479Z,17.65
2022-12-17T00:15:03.528Z,17.23
2022-12-17T00:17:20.673Z,18.80
2022-12-17T00:19:38.607Z,16.08
2022-12-17T00:21:58.507Z,17.13
2022-12-17T00:24:15.565Z,18.38
2022-12-17T00:26:32.682Z,17.30
2022-12-17T00:28:49.806Z,16.00
2022-12-17T00:31:08.032Z,16.63
2022-12-17T00:33:27.640Z,16.88
2022-12-17T00:35:44.806Z,18.25
2022-12-17T00:38:04.547Z,17.67
2022-12-17T00:40:25.749Z,14.75
2022-12-17T00:42:43.036Z,17.88
2022-12-17T00:45:00.092Z,16.15
2022-12-17T00:47:17.184Z,16.30
2022-12-17T00:49:34.274Z,17.73
2022-12-17T00:51:51.459Z,16.58
2022-12-17T00:54:11.103Z,14.68
2022-12-17T00:56:28.175Z,15.77
2022-12-17T00:58:45.218Z,16.27
2022-12-17T01:01:02.393Z,17.55
2022-12-17T01:03:21.479Z,18.48
2022-12-17T01:05:38.907Z,17.10
2022-12-17T01:07:56.291Z,17.27
2022-12-17T01:10:16.207Z,16.77
2022-12-17T01:12:33.501Z,17.13
2022-12-17T01:14:50.603Z,16.10
2022-12-17T01:17:07.861Z,17.08
2022-12-17T01:19:25.123Z,15.80
2022-12-17T01:21:42.235Z,16.52
2022-12-17T01:24:01.030Z,17.40
2022-12-17T01:26:21.056Z,15.55
2022-12-17T01:28:39.008Z,18.02
2022-12-17T01:30:56.251Z,15.25
2022-12-17T01:33:16.829Z,15.35
2022-12-17T01:35:33.970Z,15.18
2022-12-17T01:37:51.034Z,14.52
2022-12-17T01:40:08.828Z,14.63
2022-12-17T01:42:29.655Z,14.02
2022-12-17T01:45:04.824Z,14.55
2022-12-17T01:47:24.463Z,13.75
2022-12-17T01:49:42.166Z,15.63
2022-12-17T01:52:08.758Z,13.77
2022-12-17T01:54:26.521Z,15.60
2022-12-17T01:56:43.844Z,16.58
2022-12-17T01:59:04.000Z,17.50
2022-12-17T02:01:30.129Z,15.90
2022-12-17T02:03:47.676Z,13.52
2022-12-17T02:06:13.039Z,13.63
2022-12-17T02:08:36.369Z,13.25
2022-12-17T02:13:18.314Z,10.73
2022-12-17T02:15:43.514Z,15.15
2022-12-17T02:18:03.767Z,16.15
2022-12-17T02:20:30.974Z,13.55
2022-12-17T02:22:54.204Z,15.85
2022-12-17T02:27:43.290Z,14.88
2022-12-17T02:30:07.595Z,14.07
2022-12-17T02:32:26.293Z,15.80
2022-12-17T02:34:43.505Z,16.38
2022-12-17T02:37:00.773Z,13.75
2022-12-17T02:39:17.981Z,16.95
2022-12-17T02:41:38.815Z,16.75
2022-12-17T02:43:58.466Z,15.07
2022-12-17T02:46:15.634Z,16.17
2022-12-17T02:48:32.899Z,15.80
2022-12-17T02:50:50.111Z,14.77
2022-12-17T02:53:07.966Z,16.55
2022-12-17T02:55:25.504Z,15.93
2022-12-17T02:57:44.135Z,14.40
2022-12-17T03:00:04.316Z,16.33
2022-12-17T03:02:21.607Z,16.05
2022-12-17T03:04:38.849Z,16.10
2022-12-17T03:06:55.927Z,15.45
2022-12-17T03:09:12.995Z,19.45
2022-12-17T03:11:42.179Z,15.93
2022-12-17T03:13:59.499Z,15.57
2022-12-17T03:16:26.434Z,16.17
2022-12-17T03:18:43.617Z,16.27
2022-12-17T03:21:00.912Z,18.75
2022-12-17T03:23:18.839Z,17.90
2022-12-17T03:25:35.874Z,16.83
2022-12-17T03:27:53.171Z,19.00
2022-12-17T03:30:10.300Z,15.98
2022-12-17T03:32:30.632Z,17.48
2022-12-17T03:34:47.698Z,18.80
2022-12-17T03:37:04.779Z,15.93
2022-12-17T03:39:22.156Z,17.17
2022-12-17T03:41:39.686Z,18.88
2022-12-17T03:43:56.916Z,17.35
2022-12-17T03:46:14.131Z,20.52
2022-12-17T03:48:33.959Z,22.38
2022-12-17T03:50:51.012Z,16.92
2022-12-17T03:53:08.640Z,17.10
2022-12-17T03:55:26.068Z,18.10
2022-12-17T03:57:43.229Z,18.42
2022-12-17T04:00:00.357Z,17.92
2022-12-17T04:02:17.743Z,20.55
2022-12-17T04:04:37.694Z,20.15
2022-12-17T04:06:54.800Z,16.73
2022-12-17T04:09:11.922Z,20.80
2022-12-17T04:11:28.919Z,22.38
2022-12-17T04:13:46.904Z,20.48
2022-12-17T04:16:04.451Z,18.90
2022-12-17T04:18:21.724Z,23.83
2022-12-17T04:20:41.666Z,21.13
2022-12-17T04:22:58.787Z,22.23
2022-12-17T04:25:15.912Z,21.95
2022-12-17T04:27:33.053Z,23.13
2022-12-17T04:29:50.368Z,23.35
2022-12-17T04:32:07.846Z,22.38
2022-12-17T04:34:25.067Z,19.30
2022-12-17T04:36:44.868Z,21.63
2022-12-17T04:39:02.001Z,23.88
2022-12-17T04:41:27.645Z,21.95
2022-12-17T04:43:44.710Z,24.65
2022-12-17T04:46:04.922Z,22.90
2022-12-17T04:48:23.328Z,23.33
2022-12-17T04:50:40.447Z,26.33
2022-12-17T04:53:00.175Z,26.30
2022-12-17T04:55:17.372Z,22.45
2022-12-17T04:57:34.553Z,25.20
2022-12-17T04:59:51.702Z,25.27
2022-12-17T05:02:08.903Z,24.77
2022-12-17T05:04:26.009Z,25.42
2022-12-17T05:06:43.599Z,22.23
2022-12-17T05:09:03.301Z,24.67
2022-12-17T05:11:21.304Z,23.13
2022-12-17T05:13:38.874Z,24.73
2022-12-17T05:15:56.619Z,23.33
2022-12-17T05:18:20.362Z,25.15
2022-12-17T05:20:37.526Z,24.85
2022-12-17T05:22:54.757Z,27.40
2022-12-17T05:25:14.549Z,25.00
2022-12-17T05:27:34.381Z,21.92
2022-12-17T05:29:51.534Z,27.42
2022-12-17T05:32:08.916Z,20.50
2022-12-17T05:34:26.027Z,25.05
2022-12-17T05:36:43.164Z,25.33
2022-12-17T05:39:00.353Z,28.00
2022-12-17T05:41:20.643Z,26.02
2022-12-17T05:43:38.151Z,22.35
2022-12-17T05:45:55.849Z,26.13
2022-12-17T05:48:13.230Z,24.15
2022-12-17T05:50:30.662Z,27.85
2022-12-17T05:52:47.807Z,26.98
2022-12-17T05:55:07.510Z,24.98
2022-12-17T05:57:27.307Z,27.83
2022-12-17T05:59:44.558Z,26.73
2022-12-17T06:02:01.853Z,27.50
2022-12-17T06:04:19.374Z,30.40
2022-12-17T06:06:36.478Z,25.38
2022-12-17T06:08:54.232Z,30.73
2022-12-17T06:11:14.299Z,27.30
2022-12-17T06:13:34.377Z,28.23
2022-12-17T06:15:51.837Z,25.83
2022-12-17T06:18:13.689Z,22.90
2022-12-17T06:20:33.726Z,26.83
2022-12-17T06:22:50.745Z,28.15
2022-12-17T06:25:08.852Z,24.58
2022-12-17T06:27:28.755Z,28.48
2022-12-17T06:29:48.536Z,29.05
2022-12-17T06:32:05.702Z,27.55
2022-12-17T06:34:24.118Z,28.70
2022-12-17T06:36:41.432Z,29.00
2022-12-17T06:38:58.849Z,28.90
2022-12-17T06:41:16.314Z,29.85
2022-12-17T06:43:33.878Z,29.75
2022-12-17T06:46:06.376Z,28.67
2022-12-17T06:48:24.529Z,31.38
2022-12-17T06:50:41.593Z,28.30
2022-12-17T06:52:58.770Z,29.02
2022-12-17T06:55:15.879Z,24.63
2022-12-17T06:57:37.706Z,28.63
2022-12-17T06:59:57.563Z,31.42
2022-12-17T07:02:17.376Z,27.83
2022-12-17T07:04:34.629Z,25.40
2022-12-17T07:06:51.703Z,24.27
2022-12-17T07:09:08.896Z,29.45
2022-12-17T07:11:26.026Z,25.40
2022-12-17T07:13:43.379Z,31.92
2022-12-17T07:16:00.586Z,27.35
2022-12-17T07:18:20.657Z,31.48
2022-12-17T07:20:38.095Z,31.08
2022-12-17T07:22:55.171Z,31.50
2022-12-17T07:25:12.165Z,26.67
2022-12-17T07:27:29.518Z,29.27
2022-12-17T07:29:47.141Z,31.10
2022-12-17T07:32:04.424Z,27.88
2022-12-17T07:34:24.440Z,26.88
2022-12-17T07:36:41.590Z,28.20
2022-12-17T07:38:58.629Z,28.15
2022-12-17T07:41:15.907Z,27.77
2022-12-17T07:43:33.715Z,30.08
2022-12-17T07:45:51.013Z,26.55
2022-12-17T07:48:08.796Z,28.55
2022-12-17T07:50:28.846Z,29.75
2022-12-17T07:52:46.182Z,26.38
2022-12-17T07:55:03.396Z,30.35
2022-12-17T07:57:20.613Z,29.98
2022-12-17T07:59:37.799Z,25.45
2022-12-17T08:02:10.032Z,27.75
2022-12-17T08:04:27.755Z,29.83
2022-12-17T08:06:47.531Z,31.52
2022-12-17T08:09:04.850Z,31.70
2022-12-17T08:11:21.938Z,28.23
2022-12-17T08:13:39.552Z,28.73
2022-12-17T08:15:57.023Z,30.58
2022-12-17T08:18:21.443Z,28.85
2022-12-17T08:20:47.568Z,32.63
2022-12-17T08:23:07.601Z,32.05
2022-12-17T08:25:25.210Z,32.38
2022-12-17T08:27:42.664Z,30.73
2022-12-17T08:29:59.876Z,32.00
2022-12-17T08:32:17.127Z,32.05
2022-12-17T08:34:34.609Z,29.63
2022-12-17T08:36:51.958Z,34.50
2022-12-17T08:39:23.878Z,32.55
2022-12-17T08:41:41.146Z,29.45
2022-12-17T08:43:58.444Z,36.10
2022-12-17T08:46:15.533Z,32.83
2022-12-17T08:48:32.810Z,30.23
2022-12-17T08:50:49.989Z,38.38
2022-12-17T08:53:13.141Z,34.17
2022-12-17T08:55:33.022Z,34.08
2022-12-17T08:57:50.292Z,32.42
2022-12-17T09:00:07.455Z,31.30
2022-12-17T09:02:25.346Z,35.28
2022-12-17T09:04:42.617Z,34.67
2022-12-17T09:06:59.922Z,33.53
2022-12-17T09:09:17.046Z,37.35
2022-12-17T09:11:36.807Z,32.20
2022-12-17T09:13:54.815Z,35.85
2022-12-17T09:16:16.714Z,33.08
2022-12-17T09:18:34.635Z,35.47
2022-12-17T09:20:52.138Z,34.58
2022-12-17T09:23:09.347Z,32.78
2022-12-17T09:25:26.473Z,33.38
2022-12-17T09:27:58.340Z,31.65
2022-12-17T09:30:15.573Z,34.72
2022-12-17T09:32:32.688Z,34.75
2022-12-17T09:34:49.817Z,32.90
2022-12-17T09:37:09.290Z,34.95
2022-12-17T09:39:37.835Z,35.72
2022-12-17T09:42:00.620Z,36.67
2022-12-17T09:44:24.048Z,32.28
2022-12-17T09:46:45.654Z,33.83
2022-12-17T09:49:10.555Z,32.28
2022-12-17T09:51:36.438Z,31.33
2022-12-17T09:53:58.320Z,33.67
2022-12-17T09:56:15.771Z,36.90
2022-12-17T09:58:36.244Z,33.90
2022-12-17T10:01:00.689Z,38.47
2022-12-17T10:03:19.216Z,34.67
2022-12-17T10:05:51.372Z,40.85
2022-12-17T10:08:09.532Z,37.22
2022-12-17T10:10:33.459Z,37.03
2022-12-17T10:12:50.627Z,40.20
2022-12-17T10:15:10.783Z,39.45
2022-12-17T10:17:33.436Z,41.05
2022-12-17T10:19:53.397Z,40.22
2022-12-17T10:22:22.323Z,36.85
2022-12-17T10:24:42.685Z,34.63
2022-12-17T10:27:04.368Z,38.20
2022-12-17T10:29:27.928Z,35.33
2022-12-17T10:31:46.508Z,36.75
2022-12-17T10:34:13.124Z,37.42
2022-12-17T10:36:46.485Z,39.25
2022-12-17T10:39:12.421Z,38.50
2022-12-17T10:42:03.208Z,36.08
2022-12-17T10:44:35.704Z,34.63
2022-12-17T10:47:19.210Z,35.78
2022-12-17T10:50:01.590Z,35.85
2022-12-17T10:54:55.214Z,33.25
2022-12-17T10:57:14.358Z,36.28
2022-12-17T11:12:08.517Z,38.17
2022-12-17T11:14:27.510Z,38.65
2022-12-17T11:16:47.049Z,36.17
2022-12-17T11:38:20.057Z,35.15
2022-12-17T11:40:44.048Z,36.05
2022-12-17T11:43:06.365Z,36.78
2022-12-17T11:51:20.757Z,41.63
2022-12-17T11:53:52.739Z,38.83
2022-12-17T11:56:17.598Z,36.03
2022-12-17T11:58:39.364Z,43.88
2022-12-17T12:01:05.679Z,37.03
2022-12-17T12:03:32.935Z,41.97
2022-12-17T12:05:57.658Z,42.92
2022-12-17T12:08:20.460Z,43.38
2022-12-17T12:10:41.946Z,41.90
2022-12-17T12:13:11.001Z,39.58
2022-12-17T12:15:39.319Z,41.88
2022-12-17T12:20:51.628Z,39.40
2022-12-17T12:23:50.947Z,41.15
2022-12-17T12:26:16.153Z,37.90
2022-12-17T12:28:52.478Z,40.78
2022-12-17T12:31:16.838Z,36.88
2022-12-17T12:33:41.155Z,35.03
2022-12-17T12:35:58.578Z,37.53
2022-12-17T12:38:16.323Z,38.78
2022-12-17T12:40:37.696Z,35.17
2022-12-17T12:42:59.342Z,38.53
2022-12-17T12:45:33.145Z,37.58
2022-12-17T12:47:59.270Z,36.97
2022-12-17T12:50:49.742Z,34.83
2022-12-17T12:53:09.383Z,35.08
2022-12-17T12:55:26.764Z,34.70
2022-12-17T12:57:45.844Z,34.05
2022-12-17T13:00:41.141Z,35.67
2022-12-17T13:03:02.064Z,39.83
2022-12-17T13:05:39.135Z,37.28
2022-12-17T13:07:58.853Z,37.35
2022-12-17T13:10:04.481Z,33.55
2022-12-17T13:12:31.972Z,34.92
2022-12-17T13:14:39.913Z,35.65
2022-12-17T13:16:55.164Z,36.92
2022-12-17T13:19:05.245Z,34.95
2022-12-17T13:21:29.760Z,36.78
2022-12-17T13:23:37.693Z,43.58
2022-12-17T13:25:43.173Z,39.83
2022-12-17T13:27:47.969Z,42.60
2022-12-17T13:29:54.937Z,40.78
2022-12-17T13:32:12.752Z,42.53
2022-12-17T13:34:21.440Z,42.65
2022-12-17T13:36:45.840Z,43.45
2022-12-17T13:39:03.856Z,41.67
2022-12-17T13:41:27.442Z,41.97
2022-12-17T13:43:36.171Z,39.13
2022-12-17T13:45:41.974Z,40.10
2022-12-17T13:47:57.517Z,43.78
2022-12-17T13:50:33.286Z,39.50
2022-12-17T13:52:29.749Z,44.35
2022-12-17T13:54:43.400Z,44.70
2022-12-17T13:57:18.848Z,43.00
2022-12-17T13:59:36.062Z,38.17
2022-12-17T14:01:57.599Z,40.85
2022-12-17T14:04:06.995Z,44.75
2022-12-17T14:06:13.918Z,44.22
2022-12-17T14:08:20.898Z,46.00
2022-12-17T14:10:25.776Z,45.47
2022-12-17T14:12:30.136Z,46.50
2022-12-17T14:14:39.455Z,48.80
2022-12-17T14:16:50.679Z,46.58
2022-12-17T14:18:57.733Z,48.92
2022-12-17T14:21:24.606Z,50.60
2022-12-17T14:23:36.014Z,50.28
2022-12-17T14:26:24.030Z,46.33
2022-12-17T14:29:25.546Z,47.80
2022-12-17T14:34:08.844Z,46.97
2022-12-17T14:36:24.168Z,47.47
2022-12-17T14:38:48.401Z,50.60
2022-12-17T14:40:54.894Z,49.80
2022-12-17T14:42:59.464Z,48.72
2022-12-17T14:45:24.260Z,47.22
2022-12-17T14:47:31.208Z,47.20
2022-12-17T14:49:37.036Z,44.65
2022-12-17T14:51:45.341Z,46.30
2022-12-17T14:53:49.930Z,48.65
2022-12-17T14:55:56.721Z,49.58
2022-12-17T14:58:20.195Z,45.55
2022-12-17T15:00:24.934Z,45.70
2022-12-17T15:02:37.960Z,46.10
2022-12-17T15:04:43.649Z,44.75
2022-12-17T15:06:51.475Z,45.85
2022-12-17T15:09:04.336Z,47.58
2022-12-17T15:11:10.085Z,44.88
2022-12-17T15:13:14.977Z,46.88
2022-12-17T15:15:21.789Z,40.03
2022-12-17T15:17:26.506Z,49.85
2022-12-17T15:19:31.663Z,45.65
2022-12-17T15:21:36.878Z,43.55
2022-12-17T15:23:48.109Z,47.72
2022-12-17T15:25:54.562Z,43.92
2022-12-17T15:27:59.755Z,46.22
2022-12-17T15:30:04.663Z,46.13
2022-12-17T15:32:11.346Z,46.22
2022-12-17T15:34:16.194Z,44.38
2022-12-17T15:36:20.897Z,45.70
2022-12-17T15:38:27.679Z,38.20
2022-12-17T15:40:36.628Z,41.83
2022-12-17T15:42:59.188Z,44.97
2022-12-17T15:45:13.283Z,41.58
2022-12-17T15:47:21.371Z,45.03
2022-12-17T15:49:32.817Z,45.42
2022-12-17T15:51:38.433Z,42.72
2022-12-17T15:53:48.509Z,40.70
2022-12-17T15:56:02.321Z,41.92
2022-12-17T15:58:07.371Z,39.10
2022-12-17T16:00:25.791Z,41.47
2022-12-17T16:02:30.959Z,40.45
2022-12-17T16:04:35.866Z,39.50
2022-12-17T16:06:42.319Z,40.38
2022-12-17T16:08:47.189Z,40.67
2022-12-17T16:10:55.741Z,39.85
2022-12-17T16:13:00.829Z,40.20
2022-12-17T16:15:18.008Z,39.25
2022-12-17T16:17:26.944Z,40.38
2022-12-17T16:19:33.828Z,39.20
2022-12-17T16:21:43.398Z,43.70
2022-12-17T16:23:56.717Z,36.78
2022-12-17T16:26:05.702Z,34.22
2022-12-17T16:28:12.188Z,38.80
2022-12-17T16:30:17.444Z,39.58
2022-12-17T16:32:34.560Z,37.40
2022-12-17T16:34:42.227Z,35.70
2022-12-17T16:36:47.063Z,34.15
2022-12-17T16:38:53.708Z,36.95
2022-12-17T16:40:59.481Z,38.85
2022-12-17T16:43:08.732Z,39.80
2022-12-17T16:45:14.037Z,39.65
2022-12-17T16:47:18.980Z,36.08
2022-12-17T16:49:24.944Z,38.45
2022-12-17T16:51:30.954Z,32.60
2022-12-17T16:53:38.968Z,39.20
2022-12-17T16:55:47.905Z,34.60
2022-12-17T16:57:52.840Z,34.60
2022-12-17T17:00:00.475Z,36.03
2022-12-17T17:02:05.758Z,34.08
2022-12-17T17:04:12.541Z,34.63
2022-12-17T17:06:19.086Z,36.72
2022-12-17T17:08:23.839Z,41.65
2022-12-17T17:10:34.910Z,34.28
2022-12-17T17:12:43.373Z,36.85
2022-12-17T17:14:48.860Z,38.28
2022-12-17T17:16:57.058Z,38.80
2022-12-17T17:19:02.608Z,36.40
2022-12-17T17:21:28.572Z,34.97
2022-12-17T17:23:47.326Z,30.10
2022-12-17T17:25:57.965Z,35.53
2022-12-17T17:28:07.123Z,34.35
2022-12-17T17:30:15.533Z,32.30
2022-12-17T17:32:24.733Z,37.17
2022-12-17T17:34:32.351Z,32.97
2022-12-17T17:36:53.654Z,39.75
2022-12-17T17:39:06.888Z,33.60
2022-12-17T17:41:14.465Z,34.97
2022-12-17T17:43:19.378Z,33.40
2022-12-17T17:45:24.400Z,37.03
2022-12-17T17:47:32.044Z,32.17
2022-12-17T17:49:37.246Z,36.05
2022-12-17T17:54:19.754Z,36.33
2022-12-17T17:56:34.661Z,37.00
2022-12-17T17:58:57.274Z,32.25
2022-12-17T18:01:02.153Z,33.90
2022-12-17T18:03:10.107Z,31.73
2022-12-17T18:05:15.914Z,32.78
2022-12-17T18:07:25.642Z,35.15
2022-12-17T18:09:31.049Z,30.27
2022-12-17T18:11:36.495Z,33.17
2022-12-17T18:13:54.199Z,34.65
2022-12-17T18:16:03.492Z,31.60
2022-12-17T18:18:14.638Z,32.75
2022-12-17T18:20:21.309Z,34.88
2022-12-17T18:22:26.101Z,30.60
2022-12-17T18:24:30.986Z,33.78
2022-12-17T18:26:40.409Z,33.45
2022-12-17T18:28:46.649Z,30.45
2022-12-17T18:30:51.487Z,32.58
2022-12-17T18:32:57.791Z,28.92
2022-12-17T18:35:05.268Z,30.38
2022-12-17T18:37:10.153Z,33.75
2022-12-17T18:39:17.737Z,36.17
2022-12-17T18:41:34.973Z,36.05
2022-12-17T18:43:40.001Z,35.33
2022-12-17T18:45:45.453Z,30.42
2022-12-17T18:47:51.158Z,36.35
2022-12-17T18:49:56.101Z,34.28
2022-12-17T18:52:05.145Z,31.70
2022-12-17T18:54:11.274Z,31.40
2022-12-17T18:56:37.917Z,31.52
2022-12-17T18:58:41.732Z,31.90
2022-12-17T19:00:47.220Z,30.73
2022-12-17T19:02:52.007Z,34.75
2022-12-17T19:04:57.034Z,32.90
2022-12-17T19:07:04.344Z,37.80
2022-12-17T19:09:10.972Z,31.80
2022-12-17T19:11:17.870Z,35.70
2022-12-17T19:13:23.130Z,35.33
2022-12-17T19:15:30.702Z,32.85
2022-12-17T19:17:35.916Z,31.75
2022-12-17T19:19:40.967Z,42.20
2022-12-17T19:21:45.803Z,36.85
2022-12-17T19:23:57.885Z,29.85
2022-12-17T19:26:09.374Z,36.40
2022-12-17T19:28:14.150Z,37.60
2022-12-17T19:30:21.690Z,31.88
2022-12-17T19:32:26.435Z,38.05
2022-12-17T19:34:32.472Z,33.33
2022-12-17T19:36:38.509Z,32.50
2022-12-17T19:38:43.245Z,33.75
2022-12-17T19:40:52.380Z,33.55
2022-12-17T19:42:57.955Z,35.00
2022-12-17T19:45:02.674Z,33.92
2022-12-17T19:47:08.748Z,36.38
2022-12-17T19:49:14.253Z,32.53
2022-12-17T19:51:22.253Z,31.20
2022-12-17T19:53:27.684Z,29.08
2022-12-17T19:55:32.341Z,31.25
2022-12-17T19:57:39.625Z,30.02
2022-12-17T19:59:46.309Z,34.22
2022-12-17T20:01:56.978Z,34.53
2022-12-17T20:04:05.464Z,31.55
2022-12-17T20:06:21.077Z,31.40
2022-12-17T20:08:26.020Z,29.75
2022-12-17T20:10:31.602Z,28.85
2022-12-17T20:12:36.719Z,32.45
2022-12-17T20:14:44.117Z,30.48
2022-12-17T20:19:46.533Z,26.42
2022-12-17T20:22:15.940Z,31.95
2022-12-17T20:24:30.825Z,33.10
2022-12-17T20:26:37.201Z,29.10
2022-12-17T20:28:47.511Z,27.65
2022-12-17T20:31:00.157Z,32.38
2022-12-17T20:33:11.864Z,29.10
2022-12-17T20:35:17.451Z,29.85
2022-12-17T20:37:25.981Z,32.13
2022-12-17T20:39:32.337Z,32.80
2022-12-17T20:41:37.164Z,28.90
2022-12-17T20:44:12.643Z,34.88
2022-12-17T20:46:36.660Z,36.00
2022-12-17T20:48:42.634Z,32.45
2022-12-17T20:50:47.750Z,33.85
2022-12-17T20:52:52.750Z,27.83
2022-12-17T20:54:57.504Z,29.85
2022-12-17T20:57:51.547Z,29.13
2022-12-17T20:59:58.552Z,25.73
2022-12-17T21:02:15.252Z,29.33
2022-12-17T21:04:25.878Z,28.20
2022-12-17T21:06:37.555Z,30.50
2022-12-17T21:08:51.260Z,25.58
2022-12-17T21:11:12.287Z,28.45
2022-12-17T21:13:38.011Z,26.85
2022-12-17T21:15:51.731Z,28.38
2022-12-17T21:18:05.620Z,32.42
2022-12-17T21:20:14.586Z,25.08
2022-12-17T21:22:38.155Z,27.42
2022-12-17T21:24:52.939Z,27.13
2022-12-17T21:27:01.533Z,28.23
2022-12-17T21:29:11.344Z,21.85
2022-12-17T21:31:21.668Z,25.45
2022-12-17T21:33:29.490Z,17.77
2022-12-17T21:35:35.886Z,28.60
2022-12-17T21:37:40.627Z,28.63
2022-12-17T21:39:47.054Z,26.60
2022-12-17T21:42:05.673Z,27.60
2022-12-17T21:44:13.354Z,28.95
2022-12-17T21:46:19.621Z,28.85
2022-12-17T21:48:24.631Z,31.27
2022-12-17T21:50:31.919Z,29.17
2022-12-17T21:52:36.634Z,26.90
2022-12-17T21:54:41.686Z,27.15
2022-12-17T21:56:46.373Z,27.40
2022-12-17T21:59:02.200Z,27.52
2022-12-17T22:01:19.158Z,25.23
2022-12-17T22:03:24.495Z,26.38
2022-12-17T22:05:32.327Z,27.45
2022-12-17T22:07:52.794Z,25.75
2022-12-17T22:10:24.359Z,26.17
2022-12-17T22:12:35.061Z,24.35
2022-12-17T22:15:28.112Z,27.52
2022-12-17T22:17:50.465Z,28.40
2022-12-17T22:19:58.030Z,28.55
2022-12-17T22:22:05.887Z,26.98
2022-12-17T22:24:14.754Z,26.17
2022-12-17T22:26:20.956Z,26.23
2022-12-17T22:28:25.643Z,27.67
2022-12-17T22:30:42.879Z,27.02
2022-12-17T22:33:01.152Z,25.52
2022-12-17T22:36:38.238Z,25.95
2022-12-17T22:40:30.356Z,25.00
2022-12-17T22:41:55.892Z,26.75
2022-12-17T22:44:45.326Z,22.60
2022-12-17T22:45:08.334Z,23.70
2022-12-17T22:47:13.585Z,20.25
2022-12-17T22:49:19.401Z,29.08
2022-12-17T22:51:29.227Z,18.80
2022-12-17T22:53:42.416Z,24.23
2022-12-17T22:55:47.574Z,22.95
2022-12-17T22:57:52.687Z,27.08
2022-12-17T23:00:05.309Z,24.80
2022-12-17T23:02:12.133Z,24.33
2022-12-17T23:04:21.288Z,26.08
2022-12-17T23:06:37.164Z,22.65
2022-12-17T23:08:51.887Z,27.55
2022-12-17T23:10:58.519Z,26.15
2022-12-17T23:15:46.447Z,22.08
2022-12-17T23:18:04.156Z,22.92
2022-12-17T23:20:17.719Z,24.27
2022-12-17T23:22:27.932Z,24.48
2022-12-17T23:24:35.222Z,22.75
2022-12-17T23:26:40.802Z,26.48
2022-12-17T23:28:58.536Z,25.20
2022-12-17T23:31:09.618Z,26.60
2022-12-17T23:33:22.891Z,29.95
2022-12-17T23:35:27.690Z,23.77
2022-12-17T23:37:36.641Z,28.38
2022-12-17T23:39:47.058Z,25.83
2022-12-17T23:41:59.068Z,27.08
2022-12-17T23:44:13.203Z,24.08
2022-12-17T23:46:18.638Z,28.48
2022-12-17T23:48:24.403Z,23.88
2022-12-17T23:50:30.484Z,27.38
2022-12-17T23:52:39.249Z,23.88
2022-12-17T23:54:51.877Z,27.77
2022-12-17T23:59:26.819Z,22.83
